sensor_id;sensor_type;location;lat;lon;timestamp;P1;durP1;ratioP1;P2;durP2;ratioP2
19006;SDS011;9636;47.382;8.480;2023-04-24T00:01:00;1.93;;;1.53;;
19006;SDS011;9636;47.382;8.480;2023-04-24T00:03:27;2.20;;;1.27;;
19006;SDS011;9636;47.382;8.480;2023-04-24T00:05:54;1.40;;;1.30;;
19006;SDS011;9636;47.382;8.480;2023-04-24T00:08:22;2.00;;;1.40;;
19006;SDS011;9636;47.382;8.480;2023-04-24T00:10:49;1.73;;;1.30;;
19006;SDS011;9636;47.382;8.480;2023-04-24T00:13:17;1.30;;;1.20;;
19006;SDS011;9636;47.382;8.480;2023-04-24T00:15:44;1.30;;;1.17;;
19006;SDS011;9636;47.382;8.480;2023-04-24T00:18:11;1.70;;;1.30;;
19006;SDS011;9636;47.382;8.480;2023-04-24T00:20:38;1.10;;;1.10;;
19006;SDS011;9636;47.382;8.480;2023-04-24T00:23:04;1.30;;;1.20;;
19006;SDS011;9636;47.382;8.480;2023-04-24T00:25:32;1.40;;;1.30;;
19006;SDS011;9636;47.382;8.480;2023-04-24T00:27:59;1.20;;;1.10;;
19006;SDS011;9636;47.382;8.480;2023-04-24T00:30:26;1.33;;;1.20;;
19006;SDS011;9636;47.382;8.480;2023-04-24T00:32:53;1.50;;;1.40;;
19006;SDS011;9636;47.382;8.480;2023-04-24T00:35:20;1.57;;;1.10;;
19006;SDS011;9636;47.382;8.480;2023-04-24T00:37:46;1.37;;;1.00;;
19006;SDS011;9636;47.382;8.480;2023-04-24T00:40:13;2.00;;;1.23;;
19006;SDS011;9636;47.382;8.480;2023-04-24T00:42:41;1.40;;;1.30;;
19006;SDS011;9636;47.382;8.480;2023-04-24T00:45:10;2.57;;;1.30;;
19006;SDS011;9636;47.382;8.480;2023-04-24T00:47:37;1.43;;;1.23;;
19006;SDS011;9636;47.382;8.480;2023-04-24T00:50:06;1.30;;;1.20;;
19006;SDS011;9636;47.382;8.480;2023-04-24T00:52:33;1.20;;;1.10;;
19006;SDS011;9636;47.382;8.480;2023-04-24T00:55:00;1.50;;;1.17;;
19006;SDS011;9636;47.382;8.480;2023-04-24T00:57:28;1.30;;;1.20;;
19006;SDS011;9636;47.382;8.480;2023-04-24T00:59:56;1.20;;;1.10;;
19006;SDS011;9636;47.382;8.480;2023-04-24T01:02:23;1.30;;;1.00;;
19006;SDS011;9636;47.382;8.480;2023-04-24T01:04:51;1.93;;;1.20;;
19006;SDS011;9636;47.382;8.480;2023-04-24T01:07:19;1.27;;;1.17;;
19006;SDS011;9636;47.382;8.480;2023-04-24T01:09:47;1.30;;;1.20;;
19006;SDS011;9636;47.382;8.480;2023-04-24T01:12:16;1.37;;;1.20;;
19006;SDS011;9636;47.382;8.480;2023-04-24T01:14:43;1.57;;;1.20;;
19006;SDS011;9636;47.382;8.480;2023-04-24T01:17:11;1.03;;;1.00;;
19006;SDS011;9636;47.382;8.480;2023-04-24T01:19:38;1.20;;;1.10;;
19006;SDS011;9636;47.382;8.480;2023-04-24T01:22:11;2.03;;;1.23;;
19006;SDS011;9636;47.382;8.480;2023-04-24T01:24:38;1.37;;;1.13;;
19006;SDS011;9636;47.382;8.480;2023-04-24T01:27:05;0.83;;;0.83;;
19006;SDS011;9636;47.382;8.480;2023-04-24T01:29:33;1.93;;;1.10;;
19006;SDS011;9636;47.382;8.480;2023-04-24T01:32:01;1.10;;;1.00;;
19006;SDS011;9636;47.382;8.480;2023-04-24T01:34:28;1.63;;;1.20;;
19006;SDS011;9636;47.382;8.480;2023-04-24T01:36:56;1.07;;;1.07;;
19006;SDS011;9636;47.382;8.480;2023-04-24T01:39:24;2.03;;;1.20;;
19006;SDS011;9636;47.382;8.480;2023-04-24T01:41:53;1.00;;;1.00;;
19006;SDS011;9636;47.382;8.480;2023-04-24T01:44:20;2.00;;;1.20;;
19006;SDS011;9636;47.382;8.480;2023-04-24T01:46:47;0.90;;;0.90;;
19006;SDS011;9636;47.382;8.480;2023-04-24T01:49:14;1.30;;;1.20;;
19006;SDS011;9636;47.382;8.480;2023-04-24T01:51:41;0.90;;;0.90;;
19006;SDS011;9636;47.382;8.480;2023-04-24T01:54:08;0.90;;;0.90;;
19006;SDS011;9636;47.382;8.480;2023-04-24T01:56:36;1.03;;;0.93;;
19006;SDS011;9636;47.382;8.480;2023-04-24T01:59:07;1.60;;;1.10;;
19006;SDS011;9636;47.382;8.480;2023-04-24T02:01:36;1.33;;;1.23;;
19006;SDS011;9636;47.382;8.480;2023-04-24T02:04:03;1.33;;;1.23;;
19006;SDS011;9636;47.382;8.480;2023-04-24T02:06:30;0.93;;;0.90;;
19006;SDS011;9636;47.382;8.480;2023-04-24T02:08:57;1.23;;;0.90;;
19006;SDS011;9636;47.382;8.480;2023-04-24T02:11:24;0.80;;;0.80;;
19006;SDS011;9636;47.382;8.480;2023-04-24T02:13:53;1.27;;;1.00;;
19006;SDS011;9636;47.382;8.480;2023-04-24T02:16:19;0.80;;;0.80;;
19006;SDS011;9636;47.382;8.480;2023-04-24T02:18:46;0.93;;;0.90;;
19006;SDS011;9636;47.382;8.480;2023-04-24T02:21:13;0.80;;;0.80;;
19006;SDS011;9636;47.382;8.480;2023-04-24T02:23:40;1.10;;;1.10;;
19006;SDS011;9636;47.382;8.480;2023-04-24T02:26:07;0.90;;;0.90;;
19006;SDS011;9636;47.382;8.480;2023-04-24T02:28:34;1.23;;;1.00;;
19006;SDS011;9636;47.382;8.480;2023-04-24T02:31:02;1.20;;;1.10;;
19006;SDS011;9636;47.382;8.480;2023-04-24T02:33:28;1.50;;;1.10;;
19006;SDS011;9636;47.382;8.480;2023-04-24T02:35:55;0.90;;;0.90;;
19006;SDS011;9636;47.382;8.480;2023-04-24T02:38:22;1.03;;;0.90;;
19006;SDS011;9636;47.382;8.480;2023-04-24T02:40:49;0.90;;;0.90;;
19006;SDS011;9636;47.382;8.480;2023-04-24T02:43:16;0.87;;;0.87;;
19006;SDS011;9636;47.382;8.480;2023-04-24T02:45:42;1.00;;;0.90;;
19006;SDS011;9636;47.382;8.480;2023-04-24T02:48:10;0.83;;;0.83;;
19006;SDS011;9636;47.382;8.480;2023-04-24T02:50:37;0.83;;;0.83;;
19006;SDS011;9636;47.382;8.480;2023-04-24T02:53:04;1.13;;;1.03;;
19006;SDS011;9636;47.382;8.480;2023-04-24T02:55:31;1.03;;;0.97;;
19006;SDS011;9636;47.382;8.480;2023-04-24T02:57:58;0.87;;;0.80;;
19006;SDS011;9636;47.382;8.480;2023-04-24T03:00:25;0.90;;;0.90;;
19006;SDS011;9636;47.382;8.480;2023-04-24T03:02:51;0.70;;;0.70;;
19006;SDS011;9636;47.382;8.480;2023-04-24T03:05:20;1.17;;;0.93;;
19006;SDS011;9636;47.382;8.480;2023-04-24T03:07:47;0.90;;;0.90;;
19006;SDS011;9636;47.382;8.480;2023-04-24T03:10:13;1.03;;;0.73;;
19006;SDS011;9636;47.382;8.480;2023-04-24T03:12:40;0.70;;;0.70;;
19006;SDS011;9636;47.382;8.480;2023-04-24T03:15:07;0.80;;;0.80;;
19006;SDS011;9636;47.382;8.480;2023-04-24T03:17:35;1.13;;;0.90;;
19006;SDS011;9636;47.382;8.480;2023-04-24T03:20:02;0.87;;;0.87;;
19006;SDS011;9636;47.382;8.480;2023-04-24T03:22:31;1.00;;;0.90;;
19006;SDS011;9636;47.382;8.480;2023-04-24T03:24:58;1.13;;;0.90;;
19006;SDS011;9636;47.382;8.480;2023-04-24T03:27:25;1.23;;;1.00;;
19006;SDS011;9636;47.382;8.480;2023-04-24T03:29:52;1.17;;;1.00;;
19006;SDS011;9636;47.382;8.480;2023-04-24T03:32:20;0.87;;;0.87;;
19006;SDS011;9636;47.382;8.480;2023-04-24T03:34:48;1.07;;;0.90;;
19006;SDS011;9636;47.382;8.480;2023-04-24T03:37:15;0.80;;;0.80;;
19006;SDS011;9636;47.382;8.480;2023-04-24T03:39:43;0.63;;;0.63;;
19006;SDS011;9636;47.382;8.480;2023-04-24T03:42:09;0.80;;;0.80;;
19006;SDS011;9636;47.382;8.480;2023-04-24T03:44:36;0.70;;;0.70;;
19006;SDS011;9636;47.382;8.480;2023-04-24T03:47:03;0.80;;;0.80;;
19006;SDS011;9636;47.382;8.480;2023-04-24T03:49:30;0.80;;;0.80;;
19006;SDS011;9636;47.382;8.480;2023-04-24T03:51:57;1.37;;;0.70;;
19006;SDS011;9636;47.382;8.480;2023-04-24T03:54:23;0.70;;;0.70;;
19006;SDS011;9636;47.382;8.480;2023-04-24T03:56:51;0.60;;;0.60;;
19006;SDS011;9636;47.382;8.480;2023-04-24T03:59:18;0.70;;;0.70;;
19006;SDS011;9636;47.382;8.480;2023-04-24T04:01:45;0.70;;;0.70;;
19006;SDS011;9636;47.382;8.480;2023-04-24T04:04:12;0.63;;;0.63;;
19006;SDS011;9636;47.382;8.480;2023-04-24T04:06:39;0.87;;;0.70;;
19006;SDS011;9636;47.382;8.480;2023-04-24T04:09:06;0.77;;;0.77;;
19006;SDS011;9636;47.382;8.480;2023-04-24T04:11:33;0.80;;;0.80;;
19006;SDS011;9636;47.382;8.480;2023-04-24T04:14:02;1.27;;;0.70;;
19006;SDS011;9636;47.382;8.480;2023-04-24T04:16:29;0.70;;;0.70;;
19006;SDS011;9636;47.382;8.480;2023-04-24T04:18:55;0.83;;;0.73;;
19006;SDS011;9636;47.382;8.480;2023-04-24T04:21:22;0.80;;;0.80;;
19006;SDS011;9636;47.382;8.480;2023-04-24T04:23:49;0.70;;;0.70;;
19006;SDS011;9636;47.382;8.480;2023-04-24T04:26:16;0.60;;;0.60;;
19006;SDS011;9636;47.382;8.480;2023-04-24T04:28:44;0.63;;;0.63;;
19006;SDS011;9636;47.382;8.480;2023-04-24T04:31:14;0.80;;;0.80;;
19006;SDS011;9636;47.382;8.480;2023-04-24T04:33:41;0.70;;;0.70;;
19006;SDS011;9636;47.382;8.480;2023-04-24T04:36:08;0.77;;;0.77;;
19006;SDS011;9636;47.382;8.480;2023-04-24T04:38:35;0.60;;;0.60;;
19006;SDS011;9636;47.382;8.480;2023-04-24T04:41:02;0.70;;;0.70;;
19006;SDS011;9636;47.382;8.480;2023-04-24T04:43:30;0.70;;;0.70;;
19006;SDS011;9636;47.382;8.480;2023-04-24T04:45:57;0.70;;;0.70;;
19006;SDS011;9636;47.382;8.480;2023-04-24T04:48:27;0.70;;;0.70;;
19006;SDS011;9636;47.382;8.480;2023-04-24T04:50:53;0.60;;;0.60;;
19006;SDS011;9636;47.382;8.480;2023-04-24T04:53:20;0.60;;;0.60;;
19006;SDS011;9636;47.382;8.480;2023-04-24T04:55:47;0.80;;;0.70;;
19006;SDS011;9636;47.382;8.480;2023-04-24T04:58:14;0.80;;;0.70;;
19006;SDS011;9636;47.382;8.480;2023-04-24T05:00:41;0.60;;;0.60;;
19006;SDS011;9636;47.382;8.480;2023-04-24T05:03:08;0.63;;;0.63;;
19006;SDS011;9636;47.382;8.480;2023-04-24T05:05:36;0.57;;;0.57;;
19006;SDS011;9636;47.382;8.480;2023-04-24T05:08:05;0.63;;;0.63;;
19006;SDS011;9636;47.382;8.480;2023-04-24T05:10:32;0.67;;;0.67;;
19006;SDS011;9636;47.382;8.480;2023-04-24T05:13:01;0.60;;;0.60;;
19006;SDS011;9636;47.382;8.480;2023-04-24T05:15:28;0.60;;;0.60;;
19006;SDS011;9636;47.382;8.480;2023-04-24T05:17:56;0.70;;;0.70;;
19006;SDS011;9636;47.382;8.480;2023-04-24T05:20:23;0.70;;;0.70;;
19006;SDS011;9636;47.382;8.480;2023-04-24T05:22:52;0.80;;;0.80;;
19006;SDS011;9636;47.382;8.480;2023-04-24T05:25:19;0.73;;;0.73;;
19006;SDS011;9636;47.382;8.480;2023-04-24T05:27:46;0.60;;;0.60;;
19006;SDS011;9636;47.382;8.480;2023-04-24T05:30:13;0.60;;;0.60;;
19006;SDS011;9636;47.382;8.480;2023-04-24T05:32:40;0.70;;;0.70;;
19006;SDS011;9636;47.382;8.480;2023-04-24T05:35:07;0.70;;;0.70;;
19006;SDS011;9636;47.382;8.480;2023-04-24T05:37:34;0.60;;;0.60;;
19006;SDS011;9636;47.382;8.480;2023-04-24T05:40:02;1.17;;;0.70;;
19006;SDS011;9636;47.382;8.480;2023-04-24T05:42:30;0.70;;;0.70;;
19006;SDS011;9636;47.382;8.480;2023-04-24T05:44:57;0.87;;;0.87;;
19006;SDS011;9636;47.382;8.480;2023-04-24T05:47:24;0.70;;;0.70;;
19006;SDS011;9636;47.382;8.480;2023-04-24T05:49:51;0.50;;;0.50;;
19006;SDS011;9636;47.382;8.480;2023-04-24T05:52:18;0.60;;;0.60;;
19006;SDS011;9636;47.382;8.480;2023-04-24T05:54:45;1.03;;;0.70;;
19006;SDS011;9636;47.382;8.480;2023-04-24T05:57:13;0.80;;;0.70;;
19006;SDS011;9636;47.382;8.480;2023-04-24T05:59:40;0.70;;;0.70;;
19006;SDS011;9636;47.382;8.480;2023-04-24T06:02:07;0.50;;;0.50;;
19006;SDS011;9636;47.382;8.480;2023-04-24T06:04:34;0.60;;;0.60;;
19006;SDS011;9636;47.382;8.480;2023-04-24T06:07:00;0.60;;;0.60;;
19006;SDS011;9636;47.382;8.480;2023-04-24T06:09:27;0.80;;;0.70;;
19006;SDS011;9636;47.382;8.480;2023-04-24T06:11:54;0.57;;;0.57;;
19006;SDS011;9636;47.382;8.480;2023-04-24T06:14:22;0.60;;;0.60;;
19006;SDS011;9636;47.382;8.480;2023-04-24T06:16:49;0.63;;;0.63;;
19006;SDS011;9636;47.382;8.480;2023-04-24T06:19:16;1.50;;;0.60;;
19006;SDS011;9636;47.382;8.480;2023-04-24T06:21:43;0.50;;;0.50;;
19006;SDS011;9636;47.382;8.480;2023-04-24T06:24:10;0.93;;;0.60;;
19006;SDS011;9636;47.382;8.480;2023-04-24T06:26:40;0.73;;;0.73;;
19006;SDS011;9636;47.382;8.480;2023-04-24T06:29:07;0.50;;;0.50;;
19006;SDS011;9636;47.382;8.480;2023-04-24T06:31:35;0.60;;;0.60;;
19006;SDS011;9636;47.382;8.480;2023-04-24T06:34:02;0.50;;;0.50;;
19006;SDS011;9636;47.382;8.480;2023-04-24T06:36:29;0.60;;;0.60;;
19006;SDS011;9636;47.382;8.480;2023-04-24T06:38:57;0.60;;;0.60;;
19006;SDS011;9636;47.382;8.480;2023-04-24T06:41:24;1.27;;;0.70;;
19006;SDS011;9636;47.382;8.480;2023-04-24T06:43:51;0.60;;;0.60;;
19006;SDS011;9636;47.382;8.480;2023-04-24T06:46:18;0.60;;;0.60;;
19006;SDS011;9636;47.382;8.480;2023-04-24T06:48:48;0.50;;;0.50;;
19006;SDS011;9636;47.382;8.480;2023-04-24T06:51:15;0.50;;;0.50;;
19006;SDS011;9636;47.382;8.480;2023-04-24T06:53:43;0.67;;;0.67;;
19006;SDS011;9636;47.382;8.480;2023-04-24T06:56:10;0.47;;;0.40;;
19006;SDS011;9636;47.382;8.480;2023-04-24T06:58:37;0.50;;;0.50;;
19006;SDS011;9636;47.382;8.480;2023-04-24T07:01:04;0.60;;;0.60;;
19006;SDS011;9636;47.382;8.480;2023-04-24T07:03:31;0.50;;;0.50;;
19006;SDS011;9636;47.382;8.480;2023-04-24T07:05:59;0.83;;;0.50;;
19006;SDS011;9636;47.382;8.480;2023-04-24T07:08:26;0.75;;;0.55;;
19006;SDS011;9636;47.382;8.480;2023-04-24T07:10:53;0.60;;;0.60;;
19006;SDS011;9636;47.382;8.480;2023-04-24T07:13:20;0.50;;;0.50;;
19006;SDS011;9636;47.382;8.480;2023-04-24T07:15:47;0.95;;;0.60;;
19006;SDS011;9636;47.382;8.480;2023-04-24T07:18:15;0.50;;;0.50;;
19006;SDS011;9636;47.382;8.480;2023-04-24T07:20:43;0.50;;;0.50;;
19006;SDS011;9636;47.382;8.480;2023-04-24T07:23:11;0.50;;;0.50;;
19006;SDS011;9636;47.382;8.480;2023-04-24T07:25:38;0.45;;;0.45;;
19006;SDS011;9636;47.382;8.480;2023-04-24T07:28:05;0.60;;;0.60;;
19006;SDS011;9636;47.382;8.480;2023-04-24T07:30:32;0.60;;;0.60;;
19006;SDS011;9636;47.382;8.480;2023-04-24T07:32:59;0.60;;;0.60;;
19006;SDS011;9636;47.382;8.480;2023-04-24T07:35:26;0.40;;;0.40;;
19006;SDS011;9636;47.382;8.480;2023-04-24T07:37:53;0.70;;;0.70;;
19006;SDS011;9636;47.382;8.480;2023-04-24T07:40:21;0.52;;;0.52;;
19006;SDS011;9636;47.382;8.480;2023-04-24T07:42:48;0.55;;;0.55;;
19006;SDS011;9636;47.382;8.480;2023-04-24T07:45:15;0.50;;;0.50;;
19006;SDS011;9636;47.382;8.480;2023-04-24T07:47:42;0.47;;;0.45;;
19006;SDS011;9636;47.382;8.480;2023-04-24T07:50:10;0.50;;;0.50;;
19006;SDS011;9636;47.382;8.480;2023-04-24T07:52:38;0.50;;;0.50;;
19006;SDS011;9636;47.382;8.480;2023-04-24T07:55:05;0.50;;;0.50;;
19006;SDS011;9636;47.382;8.480;2023-04-24T07:57:34;0.60;;;0.60;;
19006;SDS011;9636;47.382;8.480;2023-04-24T08:00:02;0.50;;;0.50;;
19006;SDS011;9636;47.382;8.480;2023-04-24T08:02:30;0.60;;;0.50;;
19006;SDS011;9636;47.382;8.480;2023-04-24T08:04:57;0.40;;;0.40;;
19006;SDS011;9636;47.382;8.480;2023-04-24T08:07:24;0.68;;;0.50;;
19006;SDS011;9636;47.382;8.480;2023-04-24T08:09:51;0.50;;;0.50;;
19006;SDS011;9636;47.382;8.480;2023-04-24T08:12:17;0.82;;;0.60;;
19006;SDS011;9636;47.382;8.480;2023-04-24T08:14:46;0.50;;;0.50;;
19006;SDS011;9636;47.382;8.480;2023-04-24T08:17:12;0.50;;;0.50;;
19006;SDS011;9636;47.382;8.480;2023-04-24T08:19:39;0.60;;;0.60;;
19006;SDS011;9636;47.382;8.480;2023-04-24T08:22:12;0.50;;;0.50;;
19006;SDS011;9636;47.382;8.480;2023-04-24T08:24:39;0.52;;;0.52;;
19006;SDS011;9636;47.382;8.480;2023-04-24T08:27:06;0.60;;;0.60;;
19006;SDS011;9636;47.382;8.480;2023-04-24T08:29:32;0.60;;;0.60;;
19006;SDS011;9636;47.382;8.480;2023-04-24T08:32:01;1.15;;;0.80;;
19006;SDS011;9636;47.382;8.480;2023-04-24T08:34:28;0.47;;;0.47;;
19006;SDS011;9636;47.382;8.480;2023-04-24T08:36:55;0.50;;;0.50;;
19006;SDS011;9636;47.382;8.480;2023-04-24T08:39:21;0.85;;;0.60;;
19006;SDS011;9636;47.382;8.480;2023-04-24T08:41:48;0.60;;;0.60;;
19006;SDS011;9636;47.382;8.480;2023-04-24T08:44:16;0.60;;;0.60;;
19006;SDS011;9636;47.382;8.480;2023-04-24T08:46:46;1.58;;;0.60;;
19006;SDS011;9636;47.382;8.480;2023-04-24T08:49:15;0.60;;;0.50;;
19006;SDS011;9636;47.382;8.480;2023-04-24T08:51:43;0.70;;;0.70;;
19006;SDS011;9636;47.382;8.480;2023-04-24T08:57:00;1.27;;;0.60;;
19006;SDS011;9636;47.382;8.480;2023-04-24T08:59:29;0.40;;;0.40;;
19006;SDS011;9636;47.382;8.480;2023-04-24T09:01:56;0.50;;;0.50;;
19006;SDS011;9636;47.382;8.480;2023-04-24T09:04:24;0.60;;;0.60;;
19006;SDS011;9636;47.382;8.480;2023-04-24T09:06:51;0.65;;;0.52;;
19006;SDS011;9636;47.382;8.480;2023-04-24T09:09:21;0.60;;;0.60;;
19006;SDS011;9636;47.382;8.480;2023-04-24T09:11:49;0.50;;;0.50;;
19006;SDS011;9636;47.382;8.480;2023-04-24T09:14:18;0.50;;;0.50;;
19006;SDS011;9636;47.382;8.480;2023-04-24T09:16:46;0.50;;;0.50;;
19006;SDS011;9636;47.382;8.480;2023-04-24T09:19:13;0.45;;;0.45;;
19006;SDS011;9636;47.382;8.480;2023-04-24T09:21:41;0.50;;;0.50;;
19006;SDS011;9636;47.382;8.480;2023-04-24T09:24:14;0.80;;;0.70;;
19006;SDS011;9636;47.382;8.480;2023-04-24T09:26:42;0.60;;;0.60;;
19006;SDS011;9636;47.382;8.480;2023-04-24T09:29:14;0.60;;;0.60;;
19006;SDS011;9636;47.382;8.480;2023-04-24T09:31:42;0.60;;;0.60;;
19006;SDS011;9636;47.382;8.480;2023-04-24T09:34:09;0.65;;;0.65;;
19006;SDS011;9636;47.382;8.480;2023-04-24T09:36:36;0.52;;;0.52;;
19006;SDS011;9636;47.382;8.480;2023-04-24T09:39:06;0.60;;;0.60;;
19006;SDS011;9636;47.382;8.480;2023-04-24T09:41:35;0.60;;;0.60;;
19006;SDS011;9636;47.382;8.480;2023-04-24T09:44:11;0.57;;;0.57;;
19006;SDS011;9636;47.382;8.480;2023-04-24T09:46:40;0.68;;;0.68;;
19006;SDS011;9636;47.382;8.480;2023-04-24T09:49:08;0.40;;;0.40;;
19006;SDS011;9636;47.382;8.480;2023-04-24T09:51:37;0.50;;;0.50;;
19006;SDS011;9636;47.382;8.480;2023-04-24T09:54:11;0.50;;;0.50;;
19006;SDS011;9636;47.382;8.480;2023-04-24T09:56:42;0.60;;;0.60;;
19006;SDS011;9636;47.382;8.480;2023-04-24T09:59:10;0.40;;;0.40;;
19006;SDS011;9636;47.382;8.480;2023-04-24T10:01:37;1.20;;;0.60;;
19006;SDS011;9636;47.382;8.480;2023-04-24T10:04:10;0.60;;;0.60;;
19006;SDS011;9636;47.382;8.480;2023-04-24T10:06:42;2.05;;;0.63;;
19006;SDS011;9636;47.382;8.480;2023-04-24T10:09:10;0.60;;;0.60;;
19006;SDS011;9636;47.382;8.480;2023-04-24T10:11:39;0.50;;;0.50;;
19006;SDS011;9636;47.382;8.480;2023-04-24T10:14:09;0.50;;;0.50;;
19006;SDS011;9636;47.382;8.480;2023-04-24T10:16:37;0.73;;;0.70;;
19006;SDS011;9636;47.382;8.480;2023-04-24T10:19:05;0.60;;;0.60;;
19006;SDS011;9636;47.382;8.480;2023-04-24T10:21:32;0.60;;;0.60;;
19006;SDS011;9636;47.382;8.480;2023-04-24T10:24:00;0.50;;;0.50;;
19006;SDS011;9636;47.382;8.480;2023-04-24T10:26:30;0.68;;;0.60;;
19006;SDS011;9636;47.382;8.480;2023-04-24T10:28:57;0.50;;;0.50;;
19006;SDS011;9636;47.382;8.480;2023-04-24T10:31:25;0.75;;;0.75;;
19006;SDS011;9636;47.382;8.480;2023-04-24T10:33:53;0.60;;;0.60;;
19006;SDS011;9636;47.382;8.480;2023-04-24T10:36:21;0.60;;;0.60;;
19006;SDS011;9636;47.382;8.480;2023-04-24T10:38:51;0.57;;;0.57;;
19006;SDS011;9636;47.382;8.480;2023-04-24T10:41:20;0.80;;;0.80;;
19006;SDS011;9636;47.382;8.480;2023-04-24T10:43:50;0.73;;;0.65;;
19006;SDS011;9636;47.382;8.480;2023-04-24T10:46:31;0.63;;;0.60;;
19006;SDS011;9636;47.382;8.480;2023-04-24T10:49:13;0.60;;;0.60;;
19006;SDS011;9636;47.382;8.480;2023-04-24T10:52:19;0.55;;;0.55;;
19006;SDS011;9636;47.382;8.480;2023-04-24T10:54:46;0.63;;;0.60;;
19006;SDS011;9636;47.382;8.480;2023-04-24T10:57:26;0.70;;;0.70;;
19006;SDS011;9636;47.382;8.480;2023-04-24T11:00:12;1.15;;;0.73;;
19006;SDS011;9636;47.382;8.480;2023-04-24T11:02:41;0.77;;;0.77;;
19006;SDS011;9636;47.382;8.480;2023-04-24T11:05:14;0.77;;;0.77;;
19006;SDS011;9636;47.382;8.480;2023-04-24T11:10:37;8.27;;;2.05;;
19006;SDS011;9636;47.382;8.480;2023-04-24T11:13:09;0.60;;;0.60;;
19006;SDS011;9636;47.382;8.480;2023-04-24T11:15:38;0.60;;;0.60;;
19006;SDS011;9636;47.382;8.480;2023-04-24T11:18:11;0.60;;;0.60;;
19006;SDS011;9636;47.382;8.480;2023-04-24T11:20:41;0.70;;;0.70;;
19006;SDS011;9636;47.382;8.480;2023-04-24T11:23:09;0.80;;;0.80;;
19006;SDS011;9636;47.382;8.480;2023-04-24T11:25:39;0.75;;;0.60;;
19006;SDS011;9636;47.382;8.480;2023-04-24T11:28:05;0.65;;;0.65;;
19006;SDS011;9636;47.382;8.480;2023-04-24T11:30:32;0.80;;;0.80;;
19006;SDS011;9636;47.382;8.480;2023-04-24T11:33:04;0.70;;;0.70;;
19006;SDS011;9636;47.382;8.480;2023-04-24T11:35:34;0.80;;;0.80;;
19006;SDS011;9636;47.382;8.480;2023-04-24T11:38:03;0.70;;;0.70;;
19006;SDS011;9636;47.382;8.480;2023-04-24T11:40:31;0.80;;;0.80;;
19006;SDS011;9636;47.382;8.480;2023-04-24T11:42:59;0.73;;;0.73;;
19006;SDS011;9636;47.382;8.480;2023-04-24T11:45:27;0.73;;;0.73;;
19006;SDS011;9636;47.382;8.480;2023-04-24T11:47:56;0.60;;;0.60;;
19006;SDS011;9636;47.382;8.480;2023-04-24T11:50:25;0.80;;;0.80;;
19006;SDS011;9636;47.382;8.480;2023-04-24T11:52:54;0.82;;;0.82;;
19006;SDS011;9636;47.382;8.480;2023-04-24T11:55:22;0.60;;;0.60;;
19006;SDS011;9636;47.382;8.480;2023-04-24T11:57:52;0.70;;;0.70;;
19006;SDS011;9636;47.382;8.480;2023-04-24T12:00:22;0.70;;;0.70;;
19006;SDS011;9636;47.382;8.480;2023-04-24T12:02:50;0.73;;;0.73;;
19006;SDS011;9636;47.382;8.480;2023-04-24T12:05:21;0.80;;;0.80;;
19006;SDS011;9636;47.382;8.480;2023-04-24T12:07:51;0.80;;;0.80;;
19006;SDS011;9636;47.382;8.480;2023-04-24T12:10:19;0.82;;;0.82;;
19006;SDS011;9636;47.382;8.480;2023-04-24T12:12:47;0.80;;;0.80;;
19006;SDS011;9636;47.382;8.480;2023-04-24T12:15:15;0.68;;;0.68;;
19006;SDS011;9636;47.382;8.480;2023-04-24T12:17:43;0.80;;;0.80;;
19006;SDS011;9636;47.382;8.480;2023-04-24T12:20:10;0.70;;;0.70;;
19006;SDS011;9636;47.382;8.480;2023-04-24T12:22:44;0.80;;;0.80;;
19006;SDS011;9636;47.382;8.480;2023-04-24T12:25:14;0.80;;;0.80;;
19006;SDS011;9636;47.382;8.480;2023-04-24T12:27:41;0.90;;;0.90;;
19006;SDS011;9636;47.382;8.480;2023-04-24T12:30:10;0.70;;;0.70;;
19006;SDS011;9636;47.382;8.480;2023-04-24T12:32:42;0.90;;;0.90;;
19006;SDS011;9636;47.382;8.480;2023-04-24T12:35:09;0.80;;;0.80;;
19006;SDS011;9636;47.382;8.480;2023-04-24T12:37:36;0.80;;;0.80;;
19006;SDS011;9636;47.382;8.480;2023-04-24T12:40:05;0.70;;;0.70;;
19006;SDS011;9636;47.382;8.480;2023-04-24T12:42:36;1.48;;;0.70;;
19006;SDS011;9636;47.382;8.480;2023-04-24T12:45:09;0.63;;;0.63;;
19006;SDS011;9636;47.382;8.480;2023-04-24T12:47:37;0.73;;;0.73;;
19006;SDS011;9636;47.382;8.480;2023-04-24T12:50:05;0.90;;;0.90;;
19006;SDS011;9636;47.382;8.480;2023-04-24T12:52:33;0.80;;;0.80;;
19006;SDS011;9636;47.382;8.480;2023-04-24T12:55:00;1.25;;;0.70;;
19006;SDS011;9636;47.382;8.480;2023-04-24T12:57:28;0.98;;;0.90;;
19006;SDS011;9636;47.382;8.480;2023-04-24T12:59:57;0.88;;;0.88;;
19006;SDS011;9636;47.382;8.480;2023-04-24T13:02:25;0.82;;;0.70;;
19006;SDS011;9636;47.382;8.480;2023-04-24T13:04:54;1.05;;;1.02;;
19006;SDS011;9636;47.382;8.480;2023-04-24T13:07:21;0.90;;;0.90;;
19006;SDS011;9636;47.382;8.480;2023-04-24T13:09:48;0.80;;;0.80;;
19006;SDS011;9636;47.382;8.480;2023-04-24T13:12:15;0.80;;;0.80;;
19006;SDS011;9636;47.382;8.480;2023-04-24T13:14:43;2.25;;;1.30;;
19006;SDS011;9636;47.382;8.480;2023-04-24T13:17:11;0.98;;;0.93;;
19006;SDS011;9636;47.382;8.480;2023-04-24T13:19:39;0.98;;;0.85;;
19006;SDS011;9636;47.382;8.480;2023-04-24T13:22:08;1.00;;;0.90;;
19006;SDS011;9636;47.382;8.480;2023-04-24T13:24:36;1.40;;;1.10;;
19006;SDS011;9636;47.382;8.480;2023-04-24T13:27:04;1.17;;;1.08;;
19006;SDS011;9636;47.382;8.480;2023-04-24T13:29:31;1.00;;;1.00;;
19006;SDS011;9636;47.382;8.480;2023-04-24T13:31:58;1.17;;;1.08;;
19006;SDS011;9636;47.382;8.480;2023-04-24T13:34:28;1.20;;;1.10;;
19006;SDS011;9636;47.382;8.480;2023-04-24T13:36:55;1.13;;;1.10;;
19006;SDS011;9636;47.382;8.480;2023-04-24T13:39:23;1.02;;;1.00;;
19006;SDS011;9636;47.382;8.480;2023-04-24T13:41:50;1.52;;;1.08;;
19006;SDS011;9636;47.382;8.480;2023-04-24T13:44:18;1.10;;;1.00;;
19006;SDS011;9636;47.382;8.480;2023-04-24T13:46:46;1.38;;;1.00;;
19006;SDS011;9636;47.382;8.480;2023-04-24T13:49:14;1.00;;;1.00;;
19006;SDS011;9636;47.382;8.480;2023-04-24T13:51:42;1.33;;;1.02;;
19006;SDS011;9636;47.382;8.480;2023-04-24T13:54:10;1.00;;;1.00;;
19006;SDS011;9636;47.382;8.480;2023-04-24T13:56:38;1.00;;;1.00;;
19006;SDS011;9636;47.382;8.480;2023-04-24T13:59:05;1.20;;;1.10;;
19006;SDS011;9636;47.382;8.480;2023-04-24T14:01:32;1.00;;;1.00;;
19006;SDS011;9636;47.382;8.480;2023-04-24T14:03:58;1.20;;;1.10;;
19006;SDS011;9636;47.382;8.480;2023-04-24T14:06:26;1.10;;;1.05;;
19006;SDS011;9636;47.382;8.480;2023-04-24T14:08:55;0.95;;;0.95;;
19006;SDS011;9636;47.382;8.480;2023-04-24T14:11:21;2.03;;;1.00;;
19006;SDS011;9636;47.382;8.480;2023-04-24T14:13:48;1.67;;;1.00;;
19006;SDS011;9636;47.382;8.480;2023-04-24T14:16:15;1.23;;;1.13;;
19006;SDS011;9636;47.382;8.480;2023-04-24T14:18:42;1.02;;;0.95;;
19006;SDS011;9636;47.382;8.480;2023-04-24T14:21:09;1.10;;;1.00;;
19006;SDS011;9636;47.382;8.480;2023-04-24T14:23:36;1.00;;;1.00;;
19006;SDS011;9636;47.382;8.480;2023-04-24T14:26:04;1.17;;;1.08;;
19006;SDS011;9636;47.382;8.480;2023-04-24T14:28:32;1.10;;;1.10;;
19006;SDS011;9636;47.382;8.480;2023-04-24T14:30:58;0.93;;;0.90;;
19006;SDS011;9636;47.382;8.480;2023-04-24T14:33:26;1.20;;;1.10;;
19006;SDS011;9636;47.382;8.480;2023-04-24T14:35:52;1.23;;;1.13;;
19006;SDS011;9636;47.382;8.480;2023-04-24T14:38:19;0.95;;;0.90;;
19006;SDS011;9636;47.382;8.480;2023-04-24T14:40:46;1.02;;;1.02;;
19006;SDS011;9636;47.382;8.480;2023-04-24T14:43:15;1.13;;;0.85;;
19006;SDS011;9636;47.382;8.480;2023-04-24T14:45:41;1.10;;;1.10;;
19006;SDS011;9636;47.382;8.480;2023-04-24T14:48:08;1.67;;;1.02;;
19006;SDS011;9636;47.382;8.480;2023-04-24T14:50:36;1.30;;;1.20;;
19006;SDS011;9636;47.382;8.480;2023-04-24T14:53:03;1.13;;;1.10;;
19006;SDS011;9636;47.382;8.480;2023-04-24T14:55:30;1.45;;;1.30;;
19006;SDS011;9636;47.382;8.480;2023-04-24T14:57:58;1.30;;;1.05;;
19006;SDS011;9636;47.382;8.480;2023-04-24T15:00:26;1.20;;;1.10;;
19006;SDS011;9636;47.382;8.480;2023-04-24T15:02:53;1.80;;;1.20;;
19006;SDS011;9636;47.382;8.480;2023-04-24T15:05:20;1.30;;;1.20;;
19006;SDS011;9636;47.382;8.480;2023-04-24T15:07:47;1.10;;;1.10;;
19006;SDS011;9636;47.382;8.480;2023-04-24T15:10:14;1.00;;;1.00;;